Terminal Aerodrome Forecast
Issued by NWS

Home | Current Version | Previous Version | Text Only | Print | Product List | Glossary On
Versions: 1 2 3 4 5 6 7 8 9 10 11 12 13 14 15 16 17 18 19 20 21 22 23 24 25
000
FTUS46 KLOX 281100 RRA
TAFLAX
TAF
KLAX 281147Z 2812/2918 VRB03KT P6SM SKC
     FM281300 VRB03KT 3SM BR BKN003
     FM281500 VRB03KT 5SM BR OVC005
     FM281800 21006KT 6SM HZ SKC
     FM282000 25012KT P6SM SKC
     FM290400 VRB03KT P6SM SKC
     FM290800 VRB03KT 4SM BR BKN007
     FM291300 VRB03KT 2SM BR OVC004
     FM291700 23006KT 5SM HZ BKN008=

USA.gov is the U.S. government's official web portal to all federal, state and local government web resources and services.